createdAt,value
2018-04-24T00:00:40.460Z,13.82
2018-04-24T00:01:40.445Z,13.85
2018-04-24T00:02:40.437Z,13.82
2018-04-24T00:03:40.429Z,13.75
2018-04-24T00:05:01.423Z,13.81
2018-04-24T00:05:40.405Z,13.77
2018-04-24T00:06:40.392Z,13.66
2018-04-24T00:07:40.387Z,13.63
2018-04-24T00:08:40.384Z,13.75
2018-04-24T00:09:40.364Z,13.66
2018-04-24T00:11:01.364Z,13.66
2018-04-24T00:11:40.351Z,13.79
2018-04-24T00:12:40.349Z,13.75
2018-04-24T00:13:40.341Z,13.77
2018-04-24T00:14:40.315Z,13.71
2018-04-24T00:15:40.309Z,13.73
2018-04-24T00:17:01.314Z,13.82
2018-04-24T00:17:40.286Z,13.88
2018-04-24T00:18:40.290Z,13.91
2018-04-24T00:19:40.266Z,13.99
2018-04-24T00:20:40.256Z,13.99
2018-04-24T00:21:40.249Z,14.09
2018-04-24T00:23:01.244Z,14.00
2018-04-24T00:23:40.235Z,13.89
2018-04-24T00:24:40.216Z,13.89
2018-04-24T00:25:40.218Z,13.88
2018-04-24T00:26:40.211Z,13.75
2018-04-24T00:27:40.195Z,13.62
2018-04-24T00:29:01.190Z,13.64
2018-04-24T00:29:40.175Z,13.67
2018-04-24T00:30:40.164Z,13.67
2018-04-24T00:31:40.157Z,13.66
2018-04-24T00:32:40.140Z,13.62
2018-04-24T00:33:40.133Z,13.66
2018-04-24T00:35:01.142Z,13.77
2018-04-24T00:35:40.123Z,13.75
2018-04-24T00:36:40.106Z,13.64
2018-04-24T00:37:40.097Z,13.66
2018-04-24T00:38:40.080Z,13.69
2018-04-24T00:39:40.073Z,13.69
2018-04-24T00:41:01.072Z,13.60
2018-04-24T00:41:40.065Z,13.52
2018-04-24T00:42:40.046Z,13.45
2018-04-24T00:43:40.037Z,13.44
2018-04-24T00:44:40.060Z,13.45
2018-04-24T00:45:40.025Z,13.42
2018-04-24T00:47:01.040Z,13.32
2018-04-24T00:47:40.007Z,13.28
2018-04-24T00:48:39.987Z,13.20
2018-04-24T00:49:39.973Z,13.05
2018-04-24T00:50:39.968Z,13.01
2018-04-24T00:51:39.958Z,13.00
2018-04-24T00:53:00.953Z,13.07
2018-04-24T00:53:39.946Z,13.08
2018-04-24T00:54:39.929Z,13.19
2018-04-24T00:55:39.923Z,13.26
2018-04-24T00:56:39.901Z,13.26
2018-04-24T00:57:39.895Z,13.29
2018-04-24T00:59:00.890Z,13.39
2018-04-24T00:59:39.880Z,13.45
2018-04-24T01:00:39.861Z,13.45
2018-04-24T01:01:39.878Z,13.49
2018-04-24T01:02:39.843Z,13.51
2018-04-24T01:03:39.830Z,13.63
2018-04-24T01:05:00.834Z,13.60
2018-04-24T01:05:39.813Z,13.63
2018-04-24T01:06:39.827Z,13.60
2018-04-24T01:07:39.802Z,13.59
2018-04-24T01:08:39.788Z,13.54
2018-04-24T01:09:39.773Z,13.41
2018-04-24T01:11:00.769Z,13.28
2018-04-24T01:11:39.754Z,13.29
2018-04-24T01:12:39.757Z,13.15
2018-04-24T01:13:39.748Z,13.17
2018-04-24T01:14:39.719Z,13.15
2018-04-24T01:15:39.713Z,13.12
2018-04-24T01:17:00.736Z,13.10
2018-04-24T01:17:39.691Z,13.12
2018-04-24T01:18:39.692Z,13.08
2018-04-24T01:19:39.679Z,13.00
2018-04-24T01:20:39.664Z,12.96
2018-04-24T01:21:39.659Z,12.90
2018-04-24T01:23:00.659Z,12.90
2018-04-24T01:23:39.642Z,12.87
2018-04-24T01:24:39.627Z,12.83
2018-04-24T01:25:39.615Z,12.65
2018-04-24T01:26:39.611Z,12.62
2018-04-24T01:27:39.595Z,12.45
2018-04-24T01:29:00.587Z,12.52
2018-04-24T01:29:39.589Z,12.32
2018-04-24T01:30:39.568Z,12.39
2018-04-24T01:31:39.558Z,12.38
2018-04-24T01:32:39.546Z,12.47
2018-04-24T01:33:39.534Z,12.41
2018-04-24T01:35:00.536Z,12.45
2018-04-24T01:35:39.523Z,12.45
2018-04-24T01:36:39.505Z,12.52
2018-04-24T01:37:39.499Z,12.56
2018-04-24T01:38:39.482Z,12.59
2018-04-24T01:39:39.479Z,12.64
2018-04-24T01:41:00.463Z,12.74
2018-04-24T01:41:39.453Z,12.79
2018-04-24T01:42:39.441Z,12.86
2018-04-24T01:43:39.452Z,12.86
2018-04-24T01:44:39.422Z,12.82
2018-04-24T01:45:39.415Z,12.83
2018-04-24T01:47:00.401Z,12.85
2018-04-24T01:47:39.397Z,12.86
2018-04-24T01:48:39.377Z,12.86
2018-04-24T01:49:39.375Z,12.86
2018-04-24T01:50:39.361Z,12.78
2018-04-24T01:51:39.353Z,12.86
2018-04-24T01:53:00.339Z,12.87
2018-04-24T01:53:39.330Z,12.87
2018-04-24T01:54:39.333Z,12.79
2018-04-24T01:55:39.304Z,12.86
2018-04-24T01:56:39.292Z,13.00
2018-04-24T01:57:39.286Z,12.89
2018-04-24T01:59:00.277Z,12.87
2018-04-24T01:59:39.263Z,12.83
2018-04-24T02:00:39.264Z,12.86
2018-04-24T02:01:39.246Z,12.82
2018-04-24T02:02:39.239Z,12.90
2018-04-24T02:03:39.241Z,12.82
2018-04-24T02:05:00.224Z,12.97
2018-04-24T02:05:39.204Z,13.00
2018-04-24T02:06:39.194Z,12.93
2018-04-24T02:07:39.175Z,12.86
2018-04-24T02:08:39.174Z,13.03
2018-04-24T02:09:39.158Z,13.12
2018-04-24T02:11:00.161Z,13.14
2018-04-24T02:11:39.141Z,13.12
2018-04-24T02:12:39.139Z,13.07
2018-04-24T02:13:39.124Z,13.23
2018-04-24T02:14:39.108Z,13.20
2018-04-24T02:15:39.109Z,13.19
2018-04-24T02:17:00.165Z,13.26
2018-04-24T02:17:39.084Z,13.29
2018-04-24T02:18:39.072Z,13.32
2018-04-24T02:19:39.056Z,13.30
2018-04-24T02:20:39.046Z,13.38
2018-04-24T02:21:39.041Z,13.38
2018-04-24T02:23:00.043Z,13.38
2018-04-24T02:23:39.025Z,13.32
2018-04-24T02:24:39.019Z,13.39
2018-04-24T02:25:38.993Z,13.36
2018-04-24T02:26:38.996Z,13.36
2018-04-24T02:27:38.979Z,13.41
2018-04-24T02:28:59.981Z,13.44
2018-04-24T02:29:38.964Z,13.41
2018-04-24T02:30:38.950Z,13.51
2018-04-24T02:31:38.937Z,13.51
2018-04-24T02:32:38.928Z,13.49
2018-04-24T02:33:38.940Z,13.33
2018-04-24T02:34:59.919Z,13.44
2018-04-24T02:35:38.905Z,13.36
2018-04-24T02:36:38.897Z,13.30
2018-04-24T02:37:38.875Z,13.23
2018-04-24T02:38:38.864Z,13.25
2018-04-24T02:39:38.856Z,13.11
2018-04-24T02:40:59.860Z,13.15
2018-04-24T02:41:38.870Z,13.17
2018-04-24T02:42:38.831Z,13.12
2018-04-24T02:43:38.821Z,13.14
2018-04-24T02:44:38.812Z,13.20
2018-04-24T02:45:38.795Z,13.19
2018-04-24T02:46:59.795Z,13.00
2018-04-24T02:47:38.782Z,13.01
2018-04-24T02:48:38.764Z,12.86
2018-04-24T02:49:38.752Z,12.89
2018-04-24T02:50:38.746Z,12.87
2018-04-24T02:51:38.734Z,12.87
2018-04-24T02:52:59.730Z,12.85
2018-04-24T02:53:38.710Z,12.85
2018-04-24T02:54:38.712Z,12.82
2018-04-24T02:55:38.699Z,12.85
2018-04-24T02:56:38.684Z,12.77
2018-04-24T02:57:38.677Z,12.89
2018-04-24T02:58:59.666Z,12.89
2018-04-24T02:59:38.654Z,13.01
2018-04-24T03:00:38.650Z,12.82
2018-04-24T03:01:38.645Z,12.86
2018-04-24T03:02:38.624Z,12.75
2018-04-24T03:03:38.621Z,12.85
2018-04-24T03:04:59.608Z,12.85
2018-04-24T03:05:38.596Z,12.75
2018-04-24T03:06:38.577Z,12.68
2018-04-24T03:07:38.569Z,12.53
2018-04-24T03:08:38.560Z,12.41
2018-04-24T03:09:38.552Z,12.39
2018-04-24T03:10:59.546Z,12.46
2018-04-24T03:11:38.527Z,12.45
2018-04-24T03:12:38.527Z,12.53
2018-04-24T03:13:38.510Z,12.53
2018-04-24T03:14:38.505Z,12.59
2018-04-24T03:15:38.492Z,12.54
2018-04-24T03:16:59.486Z,12.52
2018-04-24T03:17:38.468Z,12.52
2018-04-24T03:18:38.462Z,12.54
2018-04-24T03:19:38.451Z,12.45
2018-04-24T03:20:38.435Z,12.31
2018-04-24T03:21:38.435Z,12.32
2018-04-24T03:22:59.418Z,12.37
2018-04-24T03:23:38.402Z,12.28
2018-04-24T03:24:38.390Z,12.27
2018-04-24T03:25:38.384Z,12.32
2018-04-24T03:26:38.371Z,12.53
2018-04-24T03:27:38.355Z,12.42
2018-04-24T03:28:59.354Z,12.49
2018-04-24T03:29:38.341Z,12.45
2018-04-24T03:30:38.336Z,12.50
2018-04-24T03:31:38.329Z,12.57
2018-04-24T03:32:38.312Z,12.41
2018-04-24T03:33:38.301Z,12.35
2018-04-24T03:34:59.297Z,12.32
2018-04-24T03:35:38.279Z,12.24
2018-04-24T03:36:38.266Z,12.20
2018-04-24T03:37:38.252Z,12.16
2018-04-24T03:38:38.248Z,12.17
2018-04-24T03:39:38.243Z,12.21
2018-04-24T03:40:59.232Z,12.24
2018-04-24T03:41:38.219Z,12.16
2018-04-24T03:42:38.209Z,12.24
2018-04-24T03:43:38.193Z,12.32
2018-04-24T03:44:38.182Z,12.27
2018-04-24T03:45:38.182Z,12.21
2018-04-24T03:46:59.163Z,12.13
2018-04-24T03:47:38.152Z,12.14
2018-04-24T03:48:38.141Z,12.07
2018-04-24T03:49:38.126Z,12.16
2018-04-24T03:50:38.120Z,12.09
2018-04-24T03:51:38.127Z,12.13
2018-04-24T03:52:59.102Z,12.28
2018-04-24T03:53:38.097Z,12.19
2018-04-24T03:54:38.079Z,12.21
2018-04-24T03:55:38.069Z,12.29
2018-04-24T03:56:38.060Z,12.37
2018-04-24T03:57:38.052Z,12.31
2018-04-24T03:58:59.071Z,12.42
2018-04-24T03:59:38.037Z,12.32
2018-04-24T04:00:38.022Z,12.41
2018-04-24T04:01:38.005Z,12.46
2018-04-24T04:02:37.994Z,12.41
2018-04-24T04:03:37.992Z,12.47
2018-04-24T04:04:58.986Z,12.38
2018-04-24T04:05:37.960Z,12.39
2018-04-24T04:06:37.954Z,12.42
2018-04-24T04:07:37.999Z,12.39
2018-04-24T04:08:37.926Z,12.39
2018-04-24T04:09:37.929Z,12.42
2018-04-24T04:10:58.915Z,12.42
2018-04-24T04:11:37.893Z,12.41
2018-04-24T04:12:37.885Z,12.50
2018-04-24T04:13:37.880Z,12.42
2018-04-24T04:14:37.867Z,12.41
2018-04-24T04:15:37.860Z,12.45
2018-04-24T04:16:58.852Z,12.42
2018-04-24T04:17:37.833Z,12.31
2018-04-24T04:18:37.821Z,12.29
2018-04-24T04:19:37.820Z,12.38
2018-04-24T04:20:37.811Z,12.39
2018-04-24T04:21:37.793Z,12.47
2018-04-24T04:22:58.797Z,12.47
2018-04-24T04:23:37.809Z,12.32
2018-04-24T04:24:37.765Z,12.34
2018-04-24T04:25:37.762Z,12.31
2018-04-24T04:26:37.735Z,12.28
2018-04-24T04:27:37.727Z,12.17
2018-04-24T04:28:58.730Z,12.17
2018-04-24T04:29:37.706Z,12.12
2018-04-24T04:30:37.708Z,11.91
2018-04-24T04:31:37.690Z,11.94
2018-04-24T04:32:37.674Z,11.76
2018-04-24T04:33:37.671Z,11.78
2018-04-24T04:34:58.660Z,11.90
2018-04-24T04:35:37.644Z,11.91
2018-04-24T04:36:37.631Z,11.85
2018-04-24T04:37:37.623Z,11.91
2018-04-24T04:38:37.612Z,11.91
2018-04-24T04:39:37.609Z,11.95
2018-04-24T04:40:58.597Z,11.96
2018-04-24T04:41:37.572Z,11.99
2018-04-24T04:42:37.564Z,11.99
2018-04-24T04:43:37.562Z,12.02
2018-04-24T04:44:37.540Z,12.09
2018-04-24T04:45:37.540Z,12.02
2018-04-24T04:46:58.541Z,12.04
2018-04-24T04:47:37.522Z,12.10
2018-04-24T04:48:37.506Z,12.12
2018-04-24T04:49:37.493Z,12.04
2018-04-24T04:50:37.497Z,12.13
2018-04-24T04:51:37.464Z,12.14
2018-04-24T04:52:58.464Z,12.16
2018-04-24T04:53:37.451Z,12.14
2018-04-24T04:54:37.436Z,12.20
2018-04-24T04:55:37.438Z,12.16
2018-04-24T04:56:37.409Z,12.19
2018-04-24T04:57:37.408Z,12.20
2018-04-24T04:58:58.401Z,12.16
2018-04-24T04:59:37.402Z,12.21
2018-04-24T05:00:37.371Z,12.28
2018-04-24T05:01:37.389Z,12.21
2018-04-24T05:02:37.368Z,12.19
2018-04-24T05:03:37.344Z,12.16
2018-04-24T05:04:58.359Z,12.20
2018-04-24T05:05:37.323Z,12.16
2018-04-24T05:06:37.311Z,12.17
2018-04-24T05:07:37.300Z,12.09
2018-04-24T05:08:37.288Z,12.09
2018-04-24T05:09:37.277Z,12.05
2018-04-24T05:10:58.281Z,12.02
2018-04-24T05:11:37.246Z,12.04
2018-04-24T05:12:37.243Z,12.16
2018-04-24T05:13:37.236Z,12.13
2018-04-24T05:14:37.220Z,12.19
2018-04-24T05:15:37.221Z,12.13
2018-04-24T05:16:58.209Z,12.14
2018-04-24T05:17:37.194Z,12.21
2018-04-24T05:18:37.190Z,12.13
2018-04-24T05:19:37.163Z,12.16
2018-04-24T05:20:37.167Z,12.14
2018-04-24T05:21:37.146Z,12.13
2018-04-24T05:22:58.140Z,12.19
2018-04-24T05:23:37.125Z,12.16
2018-04-24T05:24:37.117Z,12.16
2018-04-24T05:25:37.107Z,12.13
2018-04-24T05:26:37.219Z,12.09
2018-04-24T05:27:37.074Z,11.99
2018-04-24T05:28:58.076Z,12.07
2018-04-24T05:29:37.072Z,11.98
2018-04-24T05:30:37.066Z,12.13
2018-04-24T05:31:37.043Z,12.10
2018-04-24T05:32:37.034Z,12.10
2018-04-24T05:33:37.025Z,12.05
2018-04-24T05:34:58.019Z,12.04
2018-04-24T05:35:36.995Z,12.09
2018-04-24T05:36:36.988Z,12.05
2018-04-24T05:37:36.980Z,12.05
2018-04-24T05:38:36.964Z,12.05
2018-04-24T05:39:36.956Z,12.04
2018-04-24T05:40:57.945Z,12.07
2018-04-24T05:41:36.930Z,12.07
2018-04-24T05:42:36.938Z,12.07
2018-04-24T05:43:36.908Z,12.07
2018-04-24T05:44:36.893Z,12.12
2018-04-24T05:45:36.888Z,12.14
2018-04-24T05:46:57.886Z,12.13
2018-04-24T05:47:36.865Z,12.16
2018-04-24T05:48:36.858Z,12.19
2018-04-24T05:49:36.842Z,12.14
2018-04-24T05:50:36.841Z,12.17
2018-04-24T05:51:36.820Z,12.19
2018-04-24T05:52:57.870Z,12.20
2018-04-24T05:53:36.813Z,12.20
2018-04-24T05:54:36.795Z,12.10
2018-04-24T05:55:36.781Z,12.10
2018-04-24T05:56:36.781Z,12.13
2018-04-24T05:57:36.775Z,12.14
2018-04-24T05:58:57.752Z,12.13
2018-04-24T05:59:36.741Z,12.17
2018-04-24T06:00:36.732Z,12.20
2018-04-24T06:01:36.710Z,12.17
2018-04-24T06:02:36.704Z,12.20
2018-04-24T06:03:36.692Z,12.24
2018-04-24T06:04:57.682Z,12.20
2018-04-24T06:05:36.691Z,12.21
2018-04-24T06:06:36.662Z,12.28
2018-04-24T06:07:36.648Z,12.29
2018-04-24T06:08:36.671Z,12.37
2018-04-24T06:09:36.627Z,12.34
2018-04-24T06:10:57.625Z,12.29
2018-04-24T06:11:36.618Z,12.39
2018-04-24T06:12:36.599Z,12.27
2018-04-24T06:13:36.591Z,12.27
2018-04-24T06:14:36.577Z,12.38
2018-04-24T06:15:36.565Z,12.31
2018-04-24T06:16:57.567Z,12.34
2018-04-24T06:17:36.544Z,12.34
2018-04-24T06:18:36.530Z,12.29
2018-04-24T06:19:36.518Z,12.34
2018-04-24T06:20:36.524Z,12.41
2018-04-24T06:21:36.506Z,12.49
2018-04-24T06:22:57.498Z,12.38
2018-04-24T06:23:36.482Z,12.47
2018-04-24T06:24:36.468Z,12.67
2018-04-24T06:25:36.461Z,12.77
2018-04-24T06:26:36.455Z,12.89
2018-04-24T06:27:36.441Z,12.86
2018-04-24T06:28:57.429Z,12.83
2018-04-24T06:29:36.407Z,13.03
2018-04-24T06:30:36.400Z,13.07
2018-04-24T06:31:36.401Z,13.15
2018-04-24T06:32:36.387Z,13.25
2018-04-24T06:33:36.382Z,13.32
2018-04-24T06:34:57.371Z,13.39
2018-04-24T06:35:36.353Z,13.48
2018-04-24T06:36:36.347Z,13.51
2018-04-24T06:37:36.335Z,13.64
2018-04-24T06:38:36.319Z,13.77
2018-04-24T06:39:36.320Z,13.82
2018-04-24T06:40:57.305Z,13.88
2018-04-24T06:41:36.284Z,13.91
2018-04-24T06:42:36.273Z,14.02
2018-04-24T06:43:36.268Z,14.12
2018-04-24T06:44:36.259Z,14.24
2018-04-24T06:45:36.254Z,14.32
2018-04-24T06:46:57.248Z,14.28
2018-04-24T06:47:36.253Z,14.29
2018-04-24T06:48:36.209Z,14.29
2018-04-24T06:49:36.213Z,14.43
2018-04-24T06:50:36.222Z,14.46
2018-04-24T06:51:36.193Z,14.58
2018-04-24T06:52:57.186Z,14.62
2018-04-24T06:53:36.189Z,14.72
2018-04-24T06:54:36.156Z,14.70
2018-04-24T06:55:36.151Z,14.84
2018-04-24T06:56:36.145Z,14.81
2018-04-24T06:57:36.129Z,14.92
2018-04-24T06:58:57.120Z,14.89
2018-04-24T06:59:36.106Z,14.96
2018-04-24T07:00:36.106Z,14.96
2018-04-24T07:01:36.086Z,15.11
2018-04-24T07:02:36.078Z,15.14
2018-04-24T07:03:36.076Z,15.19
2018-04-24T07:04:57.062Z,15.23
2018-04-24T07:05:36.054Z,15.27
2018-04-24T07:06:36.045Z,15.39
2018-04-24T07:07:36.035Z,15.49
2018-04-24T07:08:36.027Z,15.53
2018-04-24T07:09:36.013Z,15.57
2018-04-24T07:10:57.013Z,15.50
2018-04-24T07:11:35.995Z,15.53
2018-04-24T07:12:35.997Z,15.67
2018-04-24T07:13:35.978Z,15.72
2018-04-24T07:14:35.965Z,15.75
2018-04-24T07:15:35.968Z,15.84
2018-04-24T07:16:57.045Z,15.96
2018-04-24T07:17:35.945Z,16.00
2018-04-24T07:18:35.930Z,16.08
2018-04-24T07:19:35.917Z,16.05
2018-04-24T07:20:35.916Z,16.15
2018-04-24T07:21:35.902Z,16.21
2018-04-24T07:22:56.901Z,16.24
2018-04-24T07:23:35.898Z,16.27
2018-04-24T07:24:35.872Z,16.39
2018-04-24T07:25:35.867Z,16.42
2018-04-24T07:26:35.855Z,16.48
2018-04-24T07:27:35.845Z,16.43
2018-04-24T07:28:56.849Z,16.45
2018-04-24T07:29:35.838Z,16.38
2018-04-24T07:30:35.820Z,16.20
2018-04-24T07:31:35.808Z,16.02
2018-04-24T07:32:35.802Z,16.02
2018-04-24T07:33:35.792Z,16.00
2018-04-24T07:34:56.796Z,15.86
2018-04-24T07:35:35.780Z,15.80
2018-04-24T07:36:35.778Z,15.76
2018-04-24T07:37:35.761Z,15.68
2018-04-24T07:38:35.747Z,15.65
2018-04-24T07:39:35.750Z,15.60
2018-04-24T07:40:56.740Z,15.60
2018-04-24T07:41:35.736Z,15.60
2018-04-24T07:42:35.721Z,15.76
2018-04-24T07:43:35.713Z,15.59
2018-04-24T07:44:35.701Z,15.68
2018-04-24T07:45:35.686Z,15.60
2018-04-24T07:46:56.686Z,15.56
2018-04-24T07:47:35.672Z,15.60
2018-04-24T07:48:35.661Z,15.62
2018-04-24T07:49:35.650Z,15.75
2018-04-24T07:50:35.641Z,15.71
2018-04-24T07:51:35.630Z,15.71
2018-04-24T07:52:56.629Z,15.75
2018-04-24T07:53:35.623Z,15.80
2018-04-24T07:54:35.613Z,15.90
2018-04-24T07:55:35.599Z,16.02
2018-04-24T07:56:35.598Z,16.05
2018-04-24T07:57:35.580Z,16.05
2018-04-24T07:58:56.579Z,16.14
2018-04-24T07:59:35.560Z,16.11
2018-04-24T08:00:35.549Z,16.09
2018-04-24T08:01:35.545Z,16.09
2018-04-24T08:02:35.541Z,16.15
2018-04-24T08:03:35.539Z,16.20
2018-04-24T08:04:56.523Z,16.24
2018-04-24T08:05:35.509Z,16.24
2018-04-24T08:06:35.501Z,16.12
2018-04-24T08:07:35.499Z,16.28
2018-04-24T08:08:35.487Z,16.31
2018-04-24T08:09:35.480Z,16.39
2018-04-24T08:10:56.471Z,16.48
2018-04-24T08:11:35.454Z,16.52
2018-04-24T08:12:35.448Z,16.64
2018-04-24T08:13:35.435Z,16.61
2018-04-24T08:14:35.431Z,16.79
2018-04-24T08:15:35.427Z,16.98
2018-04-24T08:16:56.413Z,16.78
2018-04-24T08:17:35.412Z,16.88
2018-04-24T08:18:35.403Z,16.91
2018-04-24T08:19:35.400Z,16.96
2018-04-24T08:20:35.381Z,17.01
2018-04-24T08:21:35.378Z,16.89
2018-04-24T08:22:56.443Z,16.89
2018-04-24T08:23:35.397Z,17.08
2018-04-24T08:24:35.347Z,17.12
2018-04-24T08:25:35.340Z,17.08
2018-04-24T08:26:35.328Z,17.06
2018-04-24T08:27:35.324Z,17.00
2018-04-24T08:28:56.318Z,17.08
2018-04-24T08:29:35.309Z,17.00
2018-04-24T08:30:35.303Z,16.97
2018-04-24T08:31:35.287Z,17.04
2018-04-24T08:32:35.277Z,17.04
2018-04-24T08:33:35.273Z,17.07
2018-04-24T08:34:56.263Z,17.00
2018-04-24T08:35:35.248Z,16.98
2018-04-24T08:36:35.244Z,16.85
2018-04-24T08:37:35.241Z,16.89
2018-04-24T08:38:35.233Z,17.04
2018-04-24T08:39:35.218Z,17.08
2018-04-24T08:40:56.212Z,17.21
2018-04-24T08:41:35.210Z,17.12
2018-04-24T08:42:35.201Z,17.12
2018-04-24T08:43:35.194Z,17.19
2018-04-24T08:44:35.187Z,17.21
2018-04-24T08:45:35.177Z,17.19
2018-04-24T08:46:56.172Z,17.26
2018-04-24T08:47:35.160Z,17.37
2018-04-24T08:48:35.150Z,17.46
2018-04-24T08:49:35.132Z,17.56
2018-04-24T08:50:35.133Z,17.71
2018-04-24T08:51:35.119Z,17.71
2018-04-24T08:52:56.129Z,17.92
2018-04-24T08:53:35.109Z,17.99
2018-04-24T08:54:35.125Z,17.93
2018-04-24T08:55:35.105Z,18.07
2018-04-24T08:56:35.103Z,18.03
2018-04-24T08:57:35.994Z,18.14
2018-04-24T08:58:56.072Z,18.11
2018-04-24T08:59:35.058Z,18.30
2018-04-24T09:00:35.054Z,18.39
2018-04-24T09:01:35.039Z,18.50
2018-04-24T09:02:35.032Z,18.51
2018-04-24T09:03:35.030Z,18.55
2018-04-24T09:04:56.036Z,18.72
2018-04-24T09:05:35.023Z,18.73
2018-04-24T09:06:35.005Z,18.85
2018-04-24T09:07:35.005Z,18.87
2018-04-24T09:08:35.064Z,18.88
2018-04-24T09:09:34.987Z,18.90
2018-04-24T09:10:55.985Z,18.88
2018-04-24T09:11:34.973Z,18.75
2018-04-24T09:12:34.959Z,18.73
2018-04-24T09:13:34.946Z,18.75
2018-04-24T09:14:34.972Z,18.84
2018-04-24T09:15:34.940Z,18.85
2018-04-24T09:16:55.938Z,18.92
2018-04-24T09:17:34.923Z,19.06
2018-04-24T09:18:34.915Z,19.18
2018-04-24T09:19:34.910Z,19.13
2018-04-24T09:20:34.905Z,19.25
2018-04-24T09:21:34.921Z,19.37
2018-04-24T09:22:55.891Z,19.48
2018-04-24T09:23:34.884Z,19.43
2018-04-24T09:24:34.877Z,19.36
2018-04-24T09:25:34.862Z,19.22
2018-04-24T09:26:34.862Z,19.06
2018-04-24T09:27:34.853Z,18.81
2018-04-24T09:28:55.847Z,18.82
2018-04-24T09:29:34.831Z,18.88
2018-04-24T09:30:34.856Z,18.80
2018-04-24T09:31:34.814Z,18.78
2018-04-24T09:32:34.806Z,18.76
2018-04-24T09:33:34.887Z,18.70
2018-04-24T09:34:55.800Z,18.55
2018-04-24T09:35:34.790Z,18.51
2018-04-24T09:36:34.787Z,18.41
2018-04-24T09:37:34.782Z,18.21
2018-04-24T09:38:34.777Z,18.23
2018-04-24T09:39:34.771Z,18.21
2018-04-24T09:40:55.766Z,18.23
2018-04-24T09:41:34.755Z,18.30
2018-04-24T09:42:34.748Z,18.36
2018-04-24T09:43:34.738Z,18.37
2018-04-24T09:44:34.730Z,18.42
2018-04-24T09:45:34.720Z,18.41
2018-04-24T09:46:55.735Z,18.47
2018-04-24T09:47:34.704Z,18.41
2018-04-24T09:48:34.696Z,18.41
2018-04-24T09:49:34.769Z,18.36
2018-04-24T09:50:34.692Z,18.39
2018-04-24T09:51:34.673Z,18.54
2018-04-24T09:52:55.748Z,18.60
2018-04-24T09:53:34.665Z,18.69
2018-04-24T09:54:34.653Z,18.72
2018-04-24T09:55:34.651Z,18.72
2018-04-24T09:56:34.645Z,18.80
2018-04-24T09:57:34.637Z,18.87
2018-04-24T09:58:55.639Z,18.88
2018-04-24T09:59:34.629Z,18.91
2018-04-24T10:00:34.609Z,18.88
2018-04-24T10:01:34.599Z,18.92
2018-04-24T10:02:34.601Z,18.85
2018-04-24T10:03:34.589Z,18.95
2018-04-24T10:04:55.583Z,18.98
2018-04-24T10:05:34.576Z,18.92
2018-04-24T10:06:34.575Z,19.04
2018-04-24T10:07:34.571Z,18.99
2018-04-24T10:08:34.555Z,19.06
2018-04-24T10:09:34.545Z,18.99
2018-04-24T10:10:55.553Z,19.13
2018-04-24T10:11:34.536Z,19.13
2018-04-24T10:12:34.526Z,19.00
2018-04-24T10:13:34.560Z,19.04
2018-04-24T10:14:34.510Z,19.13
2018-04-24T10:15:34.503Z,19.18
2018-04-24T10:16:55.495Z,19.25
2018-04-24T10:17:34.488Z,19.26
2018-04-24T10:18:34.492Z,19.19
2018-04-24T10:19:34.474Z,19.10
2018-04-24T10:20:34.480Z,19.16
2018-04-24T10:21:34.468Z,19.21
2018-04-24T10:22:55.478Z,19.18
2018-04-24T10:23:34.456Z,19.25
2018-04-24T10:24:34.444Z,19.44
2018-04-24T10:25:34.428Z,19.28
2018-04-24T10:26:34.427Z,19.43
2018-04-24T10:27:34.426Z,19.39
2018-04-24T10:28:55.415Z,19.50
2018-04-24T10:29:34.403Z,19.51
2018-04-24T10:30:34.397Z,19.58
2018-04-24T10:31:34.395Z,19.51
2018-04-24T10:32:34.374Z,19.48
2018-04-24T10:33:34.373Z,19.41
2018-04-24T10:34:55.378Z,19.44
2018-04-24T10:35:34.374Z,19.56
2018-04-24T10:36:34.363Z,19.62
2018-04-24T10:37:34.438Z,19.71
2018-04-24T10:38:34.339Z,19.83
2018-04-24T10:39:34.337Z,19.88
2018-04-24T10:40:55.327Z,19.92
2018-04-24T10:41:34.324Z,19.96
2018-04-24T10:42:34.315Z,19.92
2018-04-24T10:43:34.306Z,19.94
2018-04-24T10:44:34.302Z,19.91
2018-04-24T10:45:34.295Z,19.92
2018-04-24T10:46:55.290Z,19.98
2018-04-24T10:47:34.285Z,20.06
2018-04-24T10:48:34.282Z,20.21
2018-04-24T10:49:34.265Z,20.23
2018-04-24T10:50:34.261Z,20.20
2018-04-24T10:51:34.309Z,20.33
2018-04-24T10:52:55.249Z,20.24
2018-04-24T10:53:34.248Z,19.99
2018-04-24T10:54:34.236Z,19.98
2018-04-24T10:55:34.230Z,19.98
2018-04-24T10:56:34.224Z,19.96
2018-04-24T10:57:34.221Z,20.11
2018-04-24T10:58:55.215Z,20.17
2018-04-24T10:59:34.202Z,20.21
2018-04-24T11:00:34.240Z,20.31
2018-04-24T11:01:34.193Z,20.47
2018-04-24T11:02:34.189Z,20.41
2018-04-24T11:03:34.173Z,20.28
2018-04-24T11:04:55.220Z,20.36
2018-04-24T11:05:34.159Z,20.36
2018-04-24T11:06:34.171Z,20.48
2018-04-24T11:07:34.154Z,20.58
2018-04-24T11:08:34.139Z,20.74
2018-04-24T11:09:34.134Z,20.85
2018-04-24T11:10:55.137Z,20.98
2018-04-24T11:11:34.122Z,21.01
2018-04-24T11:12:34.119Z,20.94
2018-04-24T11:13:34.104Z,20.99
2018-04-24T11:14:34.101Z,21.09
2018-04-24T11:15:34.091Z,21.13
2018-04-24T11:16:55.095Z,21.12
2018-04-24T11:17:34.081Z,21.06
2018-04-24T11:18:34.081Z,21.01
2018-04-24T11:19:34.085Z,20.99
2018-04-24T11:20:34.073Z,21.01
2018-04-24T11:21:34.069Z,21.06
2018-04-24T11:22:55.064Z,21.07
2018-04-24T11:23:34.052Z,21.04
2018-04-24T11:24:34.048Z,21.12
2018-04-24T11:25:34.032Z,21.31
2018-04-24T11:26:34.040Z,21.37
2018-04-24T11:27:34.021Z,21.40
2018-04-24T11:28:55.033Z,21.58
2018-04-24T11:29:34.018Z,21.61
2018-04-24T11:30:34.027Z,21.49
2018-04-24T11:31:33.996Z,21.40
2018-04-24T11:32:34.036Z,21.24
2018-04-24T11:33:33.984Z,21.28
2018-04-24T11:34:54.990Z,21.46
2018-04-24T11:35:33.972Z,21.38
2018-04-24T11:36:34.029Z,21.40
2018-04-24T11:37:33.965Z,21.62
2018-04-24T11:38:34.089Z,21.77
2018-04-24T11:39:33.956Z,21.79
2018-04-24T11:40:54.966Z,21.83
2018-04-24T11:41:34.021Z,21.90
2018-04-24T11:42:33.944Z,21.82
2018-04-24T11:43:33.934Z,21.82
2018-04-24T11:44:33.980Z,21.64
2018-04-24T11:45:33.929Z,21.58
2018-04-24T11:46:54.926Z,21.53
2018-04-24T11:47:33.907Z,21.65
2018-04-24T11:48:33.903Z,21.68
2018-04-24T11:49:33.902Z,22.03
2018-04-24T11:50:33.893Z,21.86
2018-04-24T11:51:33.884Z,21.94
2018-04-24T11:52:54.889Z,21.94
2018-04-24T11:53:33.883Z,21.90
2018-04-24T11:54:33.867Z,21.68
2018-04-24T11:55:33.863Z,21.67
2018-04-24T11:56:33.857Z,21.71
2018-04-24T11:57:33.849Z,21.69
2018-04-24T11:58:54.853Z,21.64
2018-04-24T11:59:33.846Z,21.69
2018-04-24T12:00:33.835Z,21.79
2018-04-24T12:01:33.828Z,21.82
2018-04-24T12:02:33.874Z,21.91
2018-04-24T12:03:33.816Z,21.84
2018-04-24T12:04:54.821Z,21.88
2018-04-24T12:05:33.802Z,22.03
2018-04-24T12:06:33.816Z,22.06
2018-04-24T12:07:33.798Z,22.03
2018-04-24T12:08:33.791Z,21.96
2018-04-24T12:09:33.788Z,22.06
2018-04-24T12:10:54.788Z,22.03
2018-04-24T12:11:33.772Z,22.18
2018-04-24T12:12:33.769Z,22.20
2018-04-24T12:13:33.774Z,22.20
2018-04-24T12:14:33.764Z,21.98
2018-04-24T12:15:33.757Z,22.15
2018-04-24T12:16:54.752Z,22.10
2018-04-24T12:17:33.751Z,22.12
2018-04-24T12:18:33.747Z,22.33
2018-04-24T12:19:33.728Z,22.31
2018-04-24T12:20:33.720Z,22.42
2018-04-24T12:21:33.722Z,22.40
2018-04-24T12:22:54.723Z,22.35
2018-04-24T12:23:33.713Z,22.35
2018-04-24T12:24:33.761Z,22.31
2018-04-24T12:25:33.704Z,22.31
2018-04-24T12:26:33.692Z,22.35
2018-04-24T12:27:33.690Z,22.43
2018-04-24T12:28:54.694Z,22.62
2018-04-24T12:29:33.677Z,22.45
2018-04-24T12:30:33.692Z,22.51
2018-04-24T12:31:33.675Z,22.46
2018-04-24T12:32:33.674Z,22.43
2018-04-24T12:33:33.661Z,22.52
2018-04-24T12:34:54.668Z,22.51
2018-04-24T12:35:33.647Z,22.40
2018-04-24T12:36:33.645Z,22.52
2018-04-24T12:37:33.648Z,22.47
2018-04-24T12:38:33.646Z,22.54
2018-04-24T12:39:33.634Z,22.75
2018-04-24T12:40:54.647Z,22.70
2018-04-24T12:41:33.621Z,22.68
2018-04-24T12:42:33.617Z,22.82
2018-04-24T12:43:33.605Z,22.83
2018-04-24T12:44:33.601Z,22.91
2018-04-24T12:45:33.599Z,22.88
2018-04-24T12:46:54.601Z,22.91
2018-04-24T12:47:33.585Z,22.85
2018-04-24T12:48:33.588Z,22.83
2018-04-24T12:49:33.590Z,22.82
2018-04-24T12:50:33.581Z,22.65
2018-04-24T12:51:33.574Z,22.54
2018-04-24T12:52:54.578Z,22.64